createdAt,value
2022-12-03T00:00:16.303Z,28.02
2022-12-03T00:02:44.614Z,25.83
2022-12-03T00:05:12.806Z,26.58
2022-12-03T00:07:41.341Z,27.58
2022-12-03T00:10:13.889Z,29.60
2022-12-03T00:12:43.344Z,25.90
2022-12-03T00:15:12.334Z,28.80
2022-12-03T00:17:40.397Z,28.63
2022-12-03T00:20:10.144Z,31.85
2022-12-03T00:22:40.464Z,27.35
2022-12-03T00:25:11.122Z,28.67
2022-12-03T00:27:39.211Z,25.77
2022-12-03T00:30:10.842Z,30.00
2022-12-03T00:32:38.987Z,29.07
2022-12-03T00:35:07.952Z,27.55
2022-12-03T00:37:35.956Z,28.52
2022-12-03T00:40:04.615Z,26.77
2022-12-03T00:42:32.724Z,27.98
2022-12-03T00:45:01.504Z,28.83
2022-12-03T00:47:30.944Z,29.83
2022-12-03T00:49:59.071Z,30.95
2022-12-03T00:52:28.424Z,28.98
2022-12-03T00:54:56.644Z,27.23
2022-12-03T00:57:24.814Z,27.17
2022-12-03T00:59:53.131Z,29.00
2022-12-03T01:02:21.236Z,28.52
2022-12-03T01:04:51.015Z,30.35
2022-12-03T01:07:19.453Z,29.27
2022-12-03T01:09:48.624Z,32.20
2022-12-03T01:12:16.773Z,32.60
2022-12-03T01:14:44.985Z,32.83
2022-12-03T01:17:13.539Z,31.33
2022-12-03T01:19:47.846Z,30.58
2022-12-03T01:22:17.593Z,32.42
2022-12-03T01:24:45.799Z,31.45
2022-12-03T01:27:13.925Z,30.25
2022-12-03T01:29:42.121Z,29.33
2022-12-03T01:32:19.725Z,30.88
2022-12-03T01:34:49.434Z,31.10
2022-12-03T01:37:20.303Z,35.67
2022-12-03T01:39:48.584Z,33.10
2022-12-03T01:42:19.817Z,32.25
2022-12-03T01:44:49.168Z,32.60
2022-12-03T01:47:19.108Z,33.50
2022-12-03T01:49:51.867Z,32.47
2022-12-03T01:52:23.805Z,31.73
2022-12-03T01:54:55.715Z,32.63
2022-12-03T01:57:27.473Z,34.33
2022-12-03T01:59:57.281Z,33.72
2022-12-03T02:02:27.270Z,30.23
2022-12-03T02:04:55.814Z,34.95
2022-12-03T02:07:28.958Z,34.08
2022-12-03T02:09:59.571Z,34.80
2022-12-03T02:12:31.169Z,33.58
2022-12-03T02:14:59.667Z,34.03
2022-12-03T02:17:28.392Z,29.35
2022-12-03T02:19:57.361Z,34.42
2022-12-03T02:22:36.211Z,30.42
2022-12-03T02:25:12.851Z,30.48
2022-12-03T02:27:41.685Z,33.40
2022-12-03T02:30:11.102Z,31.45
2022-12-03T02:32:39.848Z,33.75
2022-12-03T02:35:13.693Z,32.35
2022-12-03T02:37:43.376Z,30.95
2022-12-03T02:40:18.180Z,32.38
2022-12-03T02:42:46.956Z,29.13
2022-12-03T02:45:20.025Z,30.55
2022-12-03T02:47:51.597Z,29.23
2022-12-03T02:50:23.082Z,29.10
2022-12-03T02:52:54.918Z,29.30
2022-12-03T02:55:25.313Z,31.13
2022-12-03T02:57:53.826Z,29.92
2022-12-03T03:00:23.038Z,27.23
2022-12-03T03:02:51.827Z,28.13
2022-12-03T03:05:22.669Z,28.75
2022-12-03T03:07:52.317Z,29.20
2022-12-03T03:10:24.536Z,24.73
2022-12-03T03:12:55.342Z,26.80
2022-12-03T03:15:24.776Z,25.67
2022-12-03T03:17:53.407Z,27.95
2022-12-03T03:20:21.922Z,25.13
2022-12-03T03:22:50.041Z,26.52
2022-12-03T03:25:22.493Z,25.33
2022-12-03T03:30:20.839Z,25.30
2022-12-03T03:32:51.527Z,27.20
2022-12-03T03:35:19.889Z,25.05
2022-12-03T03:37:47.988Z,25.77
2022-12-03T03:40:16.061Z,25.45
2022-12-03T03:42:44.153Z,24.33
2022-12-03T03:45:13.940Z,26.15
2022-12-03T03:47:42.949Z,24.17
2022-12-03T03:50:13.422Z,30.10
2022-12-03T03:52:42.715Z,30.13
2022-12-03T03:55:11.988Z,26.02
2022-12-03T03:57:40.858Z,29.77
2022-12-03T04:00:11.225Z,26.85
2022-12-03T04:02:42.225Z,27.90
2022-12-03T04:05:16.561Z,26.10
2022-12-03T04:07:44.777Z,30.35
2022-12-03T04:10:32.150Z,27.17
2022-12-03T04:13:00.753Z,25.92
2022-12-03T04:15:31.512Z,25.52
2022-12-03T04:18:18.602Z,28.85
2022-12-03T04:20:46.802Z,26.65
2022-12-03T04:23:13.987Z,29.67
2022-12-03T04:25:59.565Z,29.00
2022-12-03T04:28:44.708Z,27.13
2022-12-03T04:31:29.997Z,27.05
2022-12-03T04:34:16.937Z,31.15
2022-12-03T04:36:45.131Z,27.63
2022-12-03T04:39:13.277Z,32.00
2022-12-03T04:41:41.463Z,31.85
2022-12-03T04:44:26.938Z,30.83
2022-12-03T04:46:55.109Z,31.98
2022-12-03T04:49:24.945Z,30.77
2022-12-03T04:51:53.041Z,33.65
2022-12-03T04:54:21.060Z,27.20
2022-12-03T04:56:49.147Z,29.30
2022-12-03T04:59:17.575Z,32.50
2022-12-03T05:01:46.344Z,30.67
2022-12-03T05:04:15.421Z,28.75
2022-12-03T05:06:45.102Z,33.35
2022-12-03T05:09:14.067Z,31.52
2022-12-03T05:11:43.007Z,31.33
2022-12-03T05:14:11.614Z,32.35
2022-12-03T05:16:39.989Z,33.92
2022-12-03T05:19:10.642Z,31.98
2022-12-03T05:21:37.794Z,29.90
2022-12-03T05:24:07.910Z,30.10
2022-12-03T05:26:35.999Z,33.42
2022-12-03T05:29:21.961Z,36.90
2022-12-03T05:31:50.008Z,31.30
2022-12-03T05:34:18.184Z,30.15
2022-12-03T05:36:46.432Z,33.60
2022-12-03T05:39:15.844Z,30.77
2022-12-03T05:42:09.933Z,29.38
2022-12-03T05:44:38.078Z,31.52
2022-12-03T05:47:06.237Z,30.45
2022-12-03T05:49:34.363Z,30.63
2022-12-03T05:52:02.452Z,30.02
2022-12-03T05:54:31.911Z,31.80
2022-12-03T05:57:00.260Z,31.73
2022-12-03T05:59:28.388Z,30.40
2022-12-03T06:01:56.499Z,30.75
2022-12-03T06:04:24.658Z,31.23
2022-12-03T06:06:52.680Z,32.65
2022-12-03T06:09:20.838Z,29.55
2022-12-03T06:11:53.586Z,33.13
2022-12-03T06:14:21.696Z,32.25
2022-12-03T06:16:49.818Z,32.10
2022-12-03T06:19:17.954Z,33.60
2022-12-03T06:21:49.066Z,33.35
2022-12-03T06:24:17.273Z,31.30
2022-12-03T06:26:45.373Z,31.42
2022-12-03T06:29:14.773Z,31.35
2022-12-03T06:31:43.006Z,30.23
2022-12-03T06:34:11.272Z,30.90
2022-12-03T06:36:39.563Z,30.88
2022-12-03T06:39:07.604Z,32.30
2022-12-03T06:41:35.772Z,32.50
2022-12-03T06:44:03.859Z,31.25
2022-12-03T06:46:33.485Z,29.35
2022-12-03T06:49:01.757Z,29.75
2022-12-03T06:51:29.917Z,31.75
2022-12-03T06:53:58.381Z,29.23
2022-12-03T06:56:31.110Z,38.65
2022-12-03T06:59:02.916Z,30.25
2022-12-03T07:01:31.210Z,30.42
2022-12-03T07:04:00.726Z,34.85
2022-12-03T07:06:28.835Z,33.90
2022-12-03T07:08:57.124Z,43.28
2022-12-03T07:11:40.155Z,34.30
2022-12-03T07:14:11.231Z,33.83
2022-12-03T07:16:40.030Z,35.28
2022-12-03T07:19:10.064Z,35.13
2022-12-03T07:21:38.122Z,34.90
2022-12-03T07:24:06.724Z,39.13
2022-12-03T07:26:34.799Z,39.00
2022-12-03T07:29:02.967Z,40.90
2022-12-03T07:31:31.165Z,38.72
2022-12-03T07:33:59.261Z,37.92
2022-12-03T07:36:28.734Z,38.08
2022-12-03T07:38:56.871Z,39.25
2022-12-03T07:41:24.923Z,42.13
2022-12-03T07:43:53.263Z,42.30
2022-12-03T07:46:21.435Z,39.50
2022-12-03T07:48:49.498Z,43.38
2022-12-03T07:51:17.710Z,44.00
2022-12-03T07:53:47.310Z,38.58
2022-12-03T07:56:15.979Z,41.40
2022-12-03T07:58:44.193Z,34.38
2022-12-03T08:01:12.347Z,39.03
2022-12-03T08:03:43.004Z,39.00
2022-12-03T08:06:11.331Z,44.35
2022-12-03T08:08:39.369Z,46.00
2022-12-03T08:11:14.862Z,48.90
2022-12-03T08:13:42.995Z,46.55
2022-12-03T08:16:17.928Z,47.85
2022-12-03T08:18:47.033Z,47.45
2022-12-03T08:21:18.533Z,46.45
2022-12-03T08:23:46.684Z,41.92
2022-12-03T08:26:23.238Z,45.58
2022-12-03T08:28:51.797Z,43.58
2022-12-03T08:31:27.989Z,44.00
2022-12-03T08:34:17.289Z,42.90
2022-12-03T08:36:46.204Z,46.85
2022-12-03T08:39:30.668Z,44.63
2022-12-03T08:42:29.913Z,39.00
2022-12-03T08:45:00.774Z,38.03
2022-12-03T08:47:30.743Z,35.67
2022-12-03T08:50:07.445Z,42.28
2022-12-03T08:52:36.027Z,37.38
2022-12-03T08:55:29.985Z,36.75
2022-12-03T08:58:00.084Z,36.67
2022-12-03T09:00:28.145Z,35.45
2022-12-03T09:03:02.248Z,38.30
2022-12-03T09:05:33.453Z,36.72
2022-12-03T09:08:02.004Z,35.33
2022-12-03T09:10:30.174Z,37.45
2022-12-03T09:12:59.856Z,38.75
2022-12-03T09:15:28.444Z,32.80
2022-12-03T09:17:56.509Z,38.28
2022-12-03T09:20:24.599Z,43.75
2022-12-03T09:22:52.684Z,44.92
2022-12-03T09:25:20.929Z,44.90
2022-12-03T09:27:49.810Z,40.78
2022-12-03T09:30:19.608Z,42.78
2022-12-03T09:32:47.699Z,40.53
2022-12-03T09:35:15.758Z,43.75
2022-12-03T09:37:43.871Z,40.95
2022-12-03T09:40:13.718Z,42.55
2022-12-03T09:42:42.467Z,41.10
2022-12-03T09:45:14.371Z,34.47
2022-12-03T09:47:47.315Z,34.47
2022-12-03T09:50:17.416Z,34.38
2022-12-03T09:52:46.946Z,37.05
2022-12-03T09:55:19.783Z,38.28
2022-12-03T09:57:47.871Z,30.65
2022-12-03T10:00:18.804Z,35.42
2022-12-03T10:02:49.073Z,36.65
2022-12-03T10:05:20.355Z,38.63
2022-12-03T10:07:49.369Z,36.85
2022-12-03T10:10:19.556Z,36.45
2022-12-03T10:12:48.021Z,40.20
2022-12-03T10:15:18.052Z,36.10
2022-12-03T10:17:48.966Z,37.95
2022-12-03T10:20:19.392Z,37.97
2022-12-03T10:22:48.812Z,34.28
2022-12-03T10:25:19.217Z,43.25
2022-12-03T10:27:57.959Z,38.20
2022-12-03T10:30:28.544Z,38.22
2022-12-03T10:33:02.729Z,36.50
2022-12-03T10:35:39.154Z,32.77
2022-12-03T10:38:08.790Z,38.95
2022-12-03T10:40:38.493Z,39.13
2022-12-03T10:43:21.604Z,36.75
2022-12-03T10:45:51.247Z,38.53
2022-12-03T10:48:25.435Z,34.75
2022-12-03T10:50:55.523Z,39.88
2022-12-03T10:53:28.196Z,34.97
2022-12-03T10:55:59.669Z,42.08
2022-12-03T10:58:30.276Z,34.20
2022-12-03T11:01:00.137Z,37.75
2022-12-03T11:03:31.285Z,33.42
2022-12-03T11:06:02.433Z,33.35
2022-12-03T11:08:35.771Z,33.03
2022-12-03T11:11:05.997Z,37.15
2022-12-03T11:13:52.373Z,34.60
2022-12-03T11:16:59.840Z,36.85
2022-12-03T11:22:45.236Z,34.72
2022-12-03T11:25:45.998Z,35.08
2022-12-03T11:28:38.796Z,33.08
2022-12-03T11:31:12.475Z,35.58
2022-12-03T11:33:41.540Z,36.50
2022-12-03T11:36:16.750Z,35.53
2022-12-03T11:38:58.178Z,36.13
2022-12-03T11:41:29.103Z,38.67
2022-12-03T11:44:31.279Z,36.13
2022-12-03T11:47:14.109Z,30.97
2022-12-03T11:49:50.037Z,36.33
2022-12-03T11:52:30.674Z,35.33
2022-12-03T11:55:04.407Z,38.83
2022-12-03T11:57:38.782Z,37.65
2022-12-03T12:00:18.691Z,34.22
2022-12-03T12:02:47.931Z,36.22
2022-12-03T12:05:32.511Z,37.20
2022-12-03T12:08:04.434Z,38.40
2022-12-03T12:10:46.176Z,40.38
2022-12-03T12:13:42.541Z,43.10
2022-12-03T12:16:10.949Z,42.22
2022-12-03T12:18:44.040Z,40.15
2022-12-03T12:21:40.988Z,45.67
2022-12-03T12:24:38.250Z,42.10
2022-12-03T12:27:10.268Z,42.85
2022-12-03T12:29:40.166Z,44.45
2022-12-03T12:32:15.855Z,37.38
2022-12-03T12:34:46.467Z,46.17
2022-12-03T12:37:18.763Z,45.65
2022-12-03T12:39:46.903Z,45.67
2022-12-03T12:42:39.663Z,43.65
2022-12-03T12:45:16.871Z,46.75
2022-12-03T12:47:50.458Z,42.40
2022-12-03T12:50:20.398Z,43.88
2022-12-03T12:52:54.791Z,47.28
2022-12-03T12:55:24.461Z,44.42
2022-12-03T12:57:55.027Z,49.03
2022-12-03T13:00:24.616Z,48.35
2022-12-03T13:02:56.460Z,47.13
2022-12-03T13:05:27.685Z,51.78
2022-12-03T13:07:56.165Z,48.50
2022-12-03T13:10:39.540Z,44.90
2022-12-03T13:13:21.657Z,46.25
2022-12-03T13:15:53.654Z,44.45
2022-12-03T13:18:25.908Z,48.38
2022-12-03T13:20:54.704Z,51.03
2022-12-03T13:23:32.746Z,45.97
2022-12-03T13:26:19.369Z,49.42
2022-12-03T13:28:56.833Z,45.78
2022-12-03T13:31:28.331Z,45.70
2022-12-03T13:33:57.953Z,46.13
2022-12-03T13:36:37.804Z,46.28
2022-12-03T13:39:20.273Z,45.75
2022-12-03T13:42:06.211Z,44.05
2022-12-03T13:44:38.466Z,49.00
2022-12-03T13:47:14.650Z,44.65
2022-12-03T13:49:50.447Z,37.35
2022-12-03T13:52:22.389Z,45.00
2022-12-03T13:54:53.371Z,37.45
2022-12-03T13:57:21.473Z,41.13
2022-12-03T13:59:51.061Z,41.03
2022-12-03T14:02:19.334Z,49.95
2022-12-03T14:04:47.776Z,42.08
2022-12-03T14:07:16.026Z,48.08
2022-12-03T14:09:44.142Z,45.95
2022-12-03T14:12:26.993Z,40.38
2022-12-03T14:14:57.221Z,40.55
2022-12-03T14:17:25.322Z,36.92
2022-12-03T14:19:53.736Z,38.60
2022-12-03T14:22:25.360Z,39.53
2022-12-03T14:24:54.035Z,37.33
2022-12-03T14:27:23.254Z,39.90
2022-12-03T14:29:52.232Z,39.10
2022-12-03T14:32:22.066Z,39.83
2022-12-03T14:34:50.283Z,40.78
2022-12-03T14:37:18.668Z,42.03
2022-12-03T14:39:46.768Z,38.78
2022-12-03T14:42:14.884Z,40.63
2022-12-03T14:44:44.246Z,41.47
2022-12-03T14:47:13.128Z,43.80
2022-12-03T14:49:42.489Z,45.45
2022-12-03T14:52:12.470Z,41.92
2022-12-03T14:54:42.520Z,42.22
2022-12-03T14:57:12.050Z,40.97
2022-12-03T14:59:40.315Z,42.45
2022-12-03T15:02:08.917Z,46.25
2022-12-03T15:04:37.280Z,42.42
2022-12-03T15:07:06.963Z,51.08
2022-12-03T15:09:35.266Z,45.17
2022-12-03T15:12:03.320Z,42.88
2022-12-03T15:14:31.405Z,43.20
2022-12-03T15:16:59.549Z,50.83
2022-12-03T15:19:27.743Z,45.00
2022-12-03T15:21:55.812Z,50.67
2022-12-03T15:24:28.788Z,43.20
2022-12-03T15:26:56.877Z,50.92
2022-12-03T15:29:24.961Z,50.45
2022-12-03T15:31:53.079Z,49.65
2022-12-03T15:34:23.028Z,49.22
2022-12-03T15:36:51.664Z,45.40
2022-12-03T15:39:19.727Z,45.40
2022-12-03T15:41:49.652Z,48.85
2022-12-03T15:44:17.714Z,54.13
2022-12-03T15:46:45.840Z,45.78
2022-12-03T15:49:13.957Z,49.80
2022-12-03T15:51:42.104Z,50.65
2022-12-03T15:54:12.479Z,49.83
2022-12-03T15:56:40.636Z,48.72
2022-12-03T15:59:10.105Z,50.92
2022-12-03T16:01:38.199Z,44.90
2022-12-03T16:04:06.573Z,51.70
2022-12-03T16:06:34.732Z,52.80
2022-12-03T16:09:02.813Z,47.60
2022-12-03T16:11:30.989Z,46.67
2022-12-03T16:13:59.131Z,46.55
2022-12-03T16:16:28.614Z,47.45
2022-12-03T16:18:56.697Z,47.60
2022-12-03T16:21:27.114Z,44.03
2022-12-03T16:23:57.066Z,49.65
2022-12-03T16:26:25.449Z,51.10
2022-12-03T16:28:53.792Z,50.13
2022-12-03T16:31:22.016Z,47.30
2022-12-03T16:33:51.504Z,46.83
2022-12-03T16:36:19.591Z,44.70
2022-12-03T16:38:47.652Z,49.03
2022-12-03T16:41:15.802Z,47.88
2022-12-03T16:43:48.425Z,49.40
2022-12-03T16:46:26.171Z,47.45
2022-12-03T16:48:57.961Z,52.78
2022-12-03T16:51:27.028Z,54.07
2022-12-03T16:53:55.534Z,47.45
2022-12-03T16:56:23.640Z,45.00
2022-12-03T16:58:51.661Z,44.83
2022-12-03T17:01:19.846Z,44.35
2022-12-03T17:03:47.917Z,46.60
2022-12-03T17:06:17.393Z,45.13
2022-12-03T17:08:49.366Z,52.00
2022-12-03T17:11:18.572Z,41.40
2022-12-03T17:13:47.128Z,52.22
2022-12-03T17:16:15.582Z,46.53
2022-12-03T17:18:43.827Z,49.15
2022-12-03T17:21:12.109Z,51.33
2022-12-03T17:23:41.542Z,57.15
2022-12-03T17:26:09.592Z,53.97
2022-12-03T17:28:37.613Z,56.30
2022-12-03T17:31:05.914Z,59.55
2022-12-03T17:33:34.015Z,56.10
2022-12-03T17:36:02.243Z,63.25
2022-12-03T17:38:34.094Z,66.68
2022-12-03T17:41:08.488Z,64.53
2022-12-03T17:43:36.550Z,60.80
2022-12-03T17:46:06.701Z,63.38
2022-12-03T17:48:35.418Z,60.22
2022-12-03T17:51:03.851Z,65.88
2022-12-03T17:53:31.900Z,60.15
2022-12-03T17:56:00.078Z,63.72
2022-12-03T17:58:29.818Z,60.20
2022-12-03T18:01:02.504Z,65.25
2022-12-03T18:03:31.581Z,64.63
2022-12-03T18:05:59.787Z,64.53
2022-12-03T18:08:27.851Z,65.72
2022-12-03T18:10:55.916Z,69.10
2022-12-03T18:13:23.996Z,69.40
2022-12-03T18:15:53.534Z,59.47
2022-12-03T18:18:21.693Z,59.92
2022-12-03T18:20:49.736Z,61.03
2022-12-03T18:23:21.210Z,58.80
2022-12-03T18:25:49.281Z,56.58
2022-12-03T18:28:17.346Z,64.43
2022-12-03T18:30:51.988Z,59.47
2022-12-03T18:33:23.423Z,58.67
2022-12-03T18:35:54.255Z,54.20
2022-12-03T18:38:25.192Z,62.20
2022-12-03T18:40:56.671Z,58.55
2022-12-03T18:43:26.335Z,59.95
2022-12-03T18:45:54.977Z,53.60
2022-12-03T18:48:24.516Z,54.60
2022-12-03T18:50:52.595Z,61.38
2022-12-03T18:53:20.873Z,53.58
2022-12-03T18:55:49.443Z,57.53
2022-12-03T18:58:17.449Z,56.55
2022-12-03T19:00:45.716Z,55.95
2022-12-03T19:03:13.771Z,54.10
2022-12-03T19:05:43.293Z,57.33
2022-12-03T19:08:14.968Z,48.90
2022-12-03T19:10:44.281Z,50.97
2022-12-03T19:13:12.813Z,53.13
2022-12-03T19:15:40.911Z,49.08
2022-12-03T19:18:12.055Z,49.67
2022-12-03T19:20:42.912Z,53.40
2022-12-03T19:23:11.077Z,50.53
2022-12-03T19:25:39.125Z,55.03
2022-12-03T19:28:07.307Z,52.78
2022-12-03T19:30:35.369Z,50.72
2022-12-03T19:33:03.562Z,49.72
2022-12-03T19:35:32.747Z,52.05
2022-12-03T19:38:02.546Z,48.95
2022-12-03T19:40:32.179Z,48.92
2022-12-03T19:43:00.311Z,54.97
2022-12-03T19:45:28.435Z,49.55
2022-12-03T19:47:56.576Z,53.53
2022-12-03T19:50:24.616Z,53.33
2022-12-03T19:52:52.707Z,55.38
2022-12-03T19:55:24.551Z,52.90
2022-12-03T19:57:52.730Z,57.47
2022-12-03T20:00:21.152Z,50.10
2022-12-03T20:02:50.868Z,46.78
2022-12-03T20:05:19.008Z,56.42
2022-12-03T20:07:47.114Z,56.47
2022-12-03T20:10:15.243Z,52.67
2022-12-03T20:12:44.761Z,52.90
2022-12-03T20:15:14.331Z,53.72
2022-12-03T20:17:42.547Z,54.28
2022-12-03T20:20:11.336Z,52.75
2022-12-03T20:22:39.441Z,52.60
2022-12-03T20:25:08.736Z,52.63
2022-12-03T20:27:37.053Z,54.67
2022-12-03T20:30:08.026Z,53.65
2022-12-03T20:32:40.720Z,53.22
2022-12-03T20:35:13.073Z,53.15
2022-12-03T20:37:41.482Z,52.17
2022-12-03T20:40:10.588Z,52.90
2022-12-03T20:42:38.747Z,58.97
2022-12-03T20:45:10.055Z,50.40
2022-12-03T20:47:38.079Z,56.40
2022-12-03T20:50:07.375Z,51.08
2022-12-03T20:52:35.452Z,57.72
2022-12-03T20:55:03.722Z,57.75
2022-12-03T20:57:31.916Z,52.80
2022-12-03T20:59:59.979Z,61.38
2022-12-03T21:02:29.484Z,55.90
2022-12-03T21:04:57.625Z,51.47
2022-12-03T21:07:25.808Z,55.88
2022-12-03T21:09:55.378Z,58.28
2022-12-03T21:12:23.893Z,58.88
2022-12-03T21:14:51.986Z,59.08
2022-12-03T21:17:20.744Z,53.90
2022-12-03T21:19:50.458Z,57.60
2022-12-03T21:22:19.458Z,64.60
2022-12-03T21:24:47.835Z,54.90
2022-12-03T21:27:19.988Z,53.22
2022-12-03T21:29:49.830Z,60.03
2022-12-03T21:32:20.185Z,60.83
2022-12-03T21:34:48.367Z,58.72
2022-12-03T21:37:17.899Z,58.42
2022-12-03T21:39:46.204Z,58.85
2022-12-03T21:42:34.597Z,63.47
2022-12-03T21:45:02.690Z,56.10
2022-12-03T21:47:36.556Z,60.28
2022-12-03T21:50:06.532Z,53.92
2022-12-03T21:52:36.623Z,63.55
2022-12-03T21:55:05.227Z,56.90
2022-12-03T21:57:35.690Z,61.85
2022-12-03T22:00:05.500Z,60.25
2022-12-03T22:02:33.849Z,55.28
2022-12-03T22:05:02.123Z,54.95
2022-12-03T22:07:33.179Z,59.65
2022-12-03T22:10:02.748Z,66.55
2022-12-03T22:12:30.827Z,60.53
2022-12-03T22:14:59.177Z,62.20
2022-12-03T22:17:28.310Z,59.63
2022-12-03T22:19:56.831Z,65.50
2022-12-03T22:22:25.181Z,64.78
2022-12-03T22:24:56.321Z,61.55
2022-12-03T22:27:25.985Z,67.65
2022-12-03T22:29:54.221Z,58.72
2022-12-03T22:32:22.499Z,66.00
2022-12-03T22:34:50.780Z,57.45
2022-12-03T22:37:18.895Z,65.50
2022-12-03T22:39:47.102Z,61.33
2022-12-03T22:42:15.380Z,65.40
2022-12-03T22:44:44.821Z,65.55
2022-12-03T22:47:12.876Z,66.00
2022-12-03T22:49:40.954Z,61.55
2022-12-03T22:52:09.287Z,59.15
2022-12-03T22:54:37.398Z,61.80
2022-12-03T22:57:05.414Z,68.40
2022-12-03T22:59:33.672Z,59.78
2022-12-03T23:02:03.284Z,65.20
2022-12-03T23:04:31.320Z,63.50
2022-12-03T23:06:59.472Z,65.43
2022-12-03T23:09:27.973Z,61.83
2022-12-03T23:11:55.963Z,60.88
2022-12-03T23:14:24.132Z,63.50
2022-12-03T23:16:52.151Z,59.95
2022-12-03T23:19:21.821Z,62.42
2022-12-03T23:21:49.930Z,59.22
2022-12-03T23:24:18.049Z,56.50
2022-12-03T23:26:46.085Z,65.43
2022-12-03T23:29:14.275Z,65.45
2022-12-03T23:31:42.288Z,61.53
2022-12-03T23:34:10.464Z,62.03
2022-12-03T23:36:39.937Z,61.40
2022-12-03T23:39:07.997Z,63.65
2022-12-03T23:41:36.171Z,59.22
2022-12-03T23:44:07.065Z,62.67
2022-12-03T23:46:35.364Z,67.75
2022-12-03T23:49:04.227Z,66.72
2022-12-03T23:51:33.069Z,68.80
2022-12-03T23:54:03.512Z,60.85
2022-12-03T23:56:33.541Z,63.33
2022-12-03T23:59:02.103Z,63.03
